Time;durP1;ratioP1;P1;durP2;ratioP2;P2;SDS_P1;SDS_P2;PMS_P1;PMS_P2;Temp;Humidity;BMP_temperature;BMP_pressure;BME280_temperature;BME280_humidity;BME280_pressure;Samples;Min_cycle;Max_cycle;Signal;HPM_P1;HPM_P2
2022/06/25 00:02:09;;;;;;;4.25;1.40;;;22.60;96.00;;;;;;4938932;29;20042;-75
2022/06/25 00:07:19;;;;;;;2.67;1.40;;;22.60;96.20;;;;;;4938947;29;20066;-76
2022/06/25 00:09:44;;;;;;;3.78;1.88;;;22.50;96.30;;;;;;4938959;29;20481;-75
2022/06/25 00:14:59;;;;;;;2.92;1.55;;;22.50;96.70;;;;;;4939222;29;20549;-76
2022/06/25 00:17:25;;;;;;;3.80;1.50;;;22.40;96.80;;;;;;4921763;29;20031;-75
2022/06/25 00:19:51;;;;;;;2.65;1.17;;;22.50;97.00;;;;;;4938943;29;20535;-75
2022/06/25 00:22:17;;;;;;;2.00;1.27;;;22.40;96.90;;;;;;4939000;29;20027;-76
2022/06/25 00:24:42;;;;;;;5.55;1.30;;;22.40;97.00;;;;;;4938710;29;20541;-76
2022/06/25 00:27:08;;;;;;;6.43;1.55;;;22.40;97.10;;;;;;4938349;29;20107;-75
2022/06/25 00:29:34;;;;;;;6.38;1.52;;;22.40;97.10;;;;;;4921385;29;20506;-75
2022/06/25 00:31:59;;;;;;;3.30;1.30;;;22.40;97.20;;;;;;4945712;29;20023;-75
2022/06/25 00:34:28;;;;;;;7.15;1.52;;;22.40;97.30;;;;;;4956044;29;20031;-75
2022/06/25 00:36:54;;;;;;;9.13;1.40;;;22.40;97.20;;;;;;4955385;29;20124;-75
2022/06/25 00:39:20;;;;;;;2.47;1.40;;;22.40;97.40;;;;;;4938549;29;20125;-75
2022/06/25 00:41:46;;;;;;;3.58;1.10;;;22.50;97.40;;;;;;4938634;29;20366;-75
2022/06/25 00:44:12;;;;;;;3.22;1.00;;;22.50;97.50;;;;;;4921313;29;20056;-75
2022/06/25 00:46:38;;;;;;;4.97;1.48;;;22.50;97.50;;;;;;4920861;29;20028;-75
2022/06/25 00:49:04;;;;;;;2.25;1.13;;;22.50;97.50;;;;;;4937254;29;20366;-76
2022/06/25 00:51:33;;;;;;;3.53;1.35;;;22.50;97.50;;;;;;4938341;29;20020;-76
2022/06/25 00:54:05;;;;;;;1.55;0.80;;;22.60;97.30;;;;;;4938008;29;20027;-75
2022/06/25 00:56:36;;;;;;;;;;;22.60;97.10;;;;;;4938608;29;20114;-75
2022/06/25 00:59:05;;;;;;;2.85;1.23;;;22.60;97.10;;;;;;4938212;29;19906;-75
2022/06/25 01:01:35;;;;;;;1.58;1.00;;;22.70;97.10;;;;;;4920751;29;20039;-75
2022/06/25 01:04:02;;;;;;;5.18;1.10;;;22.70;96.70;;;;;;4920862;29;20083;-75
2022/06/25 01:06:30;;;;;;;3.95;1.02;;;22.70;96.70;;;;;;4937614;29;20028;-75
2022/06/25 01:08:59;;;;;;;4.20;1.75;;;22.70;96.60;;;;;;4955769;29;20031;-76
2022/06/25 01:11:25;;;;;;;2.10;1.20;;;22.80;96.40;;;;;;4955500;29;20030;-76
2022/06/25 01:13:52;;;;;;;3.25;1.05;;;22.80;96.20;;;;;;4956745;29;20114;-75
2022/06/25 01:16:22;;;;;;;1.38;0.85;;;22.80;95.80;;;;;;4956711;29;20409;-76
2022/06/25 01:18:48;;;;;;;2.92;1.00;;;22.80;95.70;;;;;;4956740;29;20114;-76
2022/06/25 01:21:14;;;;;;;5.10;1.10;;;22.80;95.70;;;;;;4939523;29;20023;-75
2022/06/25 01:23:40;;;;;;;1.80;1.20;;;22.70;96.00;;;;;;4956559;29;20055;-76
2022/06/25 01:26:06;;;;;;;2.85;0.90;;;22.70;95.90;;;;;;4956462;29;20058;-75
2022/06/25 01:28:32;;;;;;;1.75;1.05;;;22.70;95.70;;;;;;4956774;29;20525;-75
2022/06/25 01:30:58;;;;;;;2.10;1.00;;;22.80;95.30;;;;;;4956779;29;20078;-75
2022/06/25 01:33:24;;;;;;;1.25;1.00;;;22.90;95.10;;;;;;4956458;29;20111;-76
2022/06/25 01:35:49;;;;;;;1.35;0.75;;;22.90;95.00;;;;;;4930527;29;20103;-75
2022/06/25 01:38:15;;;;;;;3.00;0.80;;;22.80;94.90;;;;;;4907692;29;20024;-75
2022/06/25 01:40:41;;;;;;;1.50;0.88;;;22.90;94.50;;;;;;4918417;29;20024;-76
2022/06/25 01:43:07;;;;;;;4.30;1.40;;;22.90;93.90;;;;;;4916899;29;20059;-75
2022/06/25 01:45:35;;;;;;;3.40;1.10;;;22.90;93.90;;;;;;4918237;29;20087;-76
2022/06/25 01:48:03;;;;;;;3.17;1.20;;;22.90;93.90;;;;;;4918399;29;20051;-76
2022/06/25 01:50:30;;;;;;;3.45;0.90;;;22.90;93.80;;;;;;4932772;29;20478;-76
2022/06/25 01:52:56;;;;;;;0.90;0.60;;;22.90;94.10;;;;;;4918352;29;20047;-76
2022/06/25 01:55:22;;;;;;;2.47;0.90;;;22.80;94.30;;;;;;4918488;29;20471;-75
2022/06/25 01:57:49;;;;;;;1.52;1.02;;;22.70;94.40;;;;;;4918113;29;20034;-76
2022/06/25 02:00:18;;;;;;;1.55;0.90;;;22.60;94.50;;;;;;4917652;29;20031;-76
2022/06/25 02:02:44;;;;;;;1.80;1.00;;;22.60;94.80;;;;;;4932557;29;20040;-76
2022/06/25 02:05:12;;;;;;;4.45;1.00;;;22.50;94.90;;;;;;4917713;29;20520;-76
2022/06/25 02:07:38;;;;;;;1.13;0.93;;;22.50;95.00;;;;;;4917411;29;20035;-76
2022/06/25 02:10:04;;;;;;;1.00;0.65;;;22.40;94.80;;;;;;4918031;29;20028;-76
2022/06/25 02:12:30;;;;;;;1.75;0.73;;;22.40;94.80;;;;;;4900499;29;20031;-75
2022/06/25 02:14:56;;;;;;;1.73;1.30;;;22.50;94.70;;;;;;4900504;29;20024;-75
2022/06/25 02:17:22;;;;;;;2.80;0.73;;;22.40;94.90;;;;;;4917825;29;20028;-75
2022/06/25 02:19:47;;;;;;;0.88;0.77;;;22.40;94.90;;;;;;4917660;29;20027;-75
2022/06/25 02:22:14;;;;;;;0.68;0.63;;;22.50;94.90;;;;;;4917361;29;20449;-76
2022/06/25 02:24:44;;;;;;;1.08;0.77;;;22.50;94.80;;;;;;4900151;29;20039;-75
2022/06/25 02:27:10;;;;;;;0.85;0.85;;;22.50;94.80;;;;;;4932046;29;20080;-75
2022/06/25 02:29:36;;;;;;;2.47;1.05;;;22.60;95.00;;;;;;4916178;29;20024;-75
2022/06/25 02:32:03;;;;;;;2.05;0.90;;;22.60;94.40;;;;;;4917473;29;20038;-75
2022/06/25 02:34:29;;;;;;;2.75;1.00;;;22.60;94.40;;;;;;4917066;29;20028;-75
2022/06/25 02:36:55;;;;;;;1.00;0.70;;;22.60;94.30;;;;;;4929491;29;20531;-75
2022/06/25 02:39:21;;;;;;;3.30;0.80;;;22.60;94.10;;;;;;4938223;29;20039;-76
2022/06/25 02:41:46;;;;;;;1.75;0.63;;;22.60;94.00;;;;;;4954343;29;20032;-75
2022/06/25 02:44:12;;;;;;;2.63;0.80;;;22.60;93.90;;;;;;4954280;29;20027;-76
2022/06/25 02:46:38;;;;;;;0.95;0.63;;;22.60;94.00;;;;;;4955092;29;20027;-75
2022/06/25 02:49:03;;;;;;;1.27;0.90;;;22.60;93.70;;;;;;4955197;29;20031;-75
2022/06/25 02:51:29;;;;;;;1.42;0.80;;;22.70;93.50;;;;;;4955271;29;20020;-75
2022/06/25 02:53:55;;;;;;;1.83;0.90;;;22.70;93.50;;;;;;4955335;29;20065;-75
2022/06/25 02:59:07;;;;;;;1.60;0.70;;;22.70;93.40;;;;;;4955459;29;20077;-76
2022/06/25 03:01:36;;;;;;;1.38;0.70;;;22.70;93.40;;;;;;4955144;29;20027;-75
2022/06/25 03:04:01;;;;;;;0.80;0.80;;;22.60;93.40;;;;;;4955250;29;20369;-75
2022/06/25 03:06:28;;;;;;;1.85;0.70;;;22.60;93.40;;;;;;4955074;29;20038;-75
2022/06/25 03:08:53;;;;;;;2.88;0.73;;;22.60;93.40;;;;;;4937292;29;20027;-75
2022/06/25 03:11:19;;;;;;;1.27;0.70;;;22.60;93.30;;;;;;4935201;29;20024;-76
2022/06/25 03:13:45;;;;;;;1.52;0.70;;;22.60;93.10;;;;;;4935791;29;20031;-77
2022/06/25 03:16:11;;;;;;;0.90;0.90;;;22.60;93.00;;;;;;4935928;29;20087;-76
2022/06/25 03:18:38;;;;;;;0.57;0.57;;;22.50;93.00;;;;;;4918737;29;20102;-76
2022/06/25 03:21:04;;;;;;;1.15;0.70;;;22.60;92.80;;;;;;4935936;29;20028;-75
2022/06/25 03:23:30;;;;;;;0.45;0.45;;;22.50;92.50;;;;;;4918211;29;20447;-76
2022/06/25 03:25:56;;;;;;;2.95;0.70;;;22.60;92.50;;;;;;4935707;29;20134;-75
2022/06/25 03:28:22;;;;;;;2.10;0.63;;;22.50;92.50;;;;;;4935728;29;20036;-75
2022/06/25 03:30:48;;;;;;;1.92;0.70;;;22.50;92.60;;;;;;4918403;29;20026;-75
2022/06/25 03:33:14;;;;;;;1.77;0.60;;;22.50;92.80;;;;;;4935644;29;20016;-76
2022/06/25 03:35:40;;;;;;;0.88;0.80;;;22.40;92.80;;;;;;4935677;29;20052;-76
2022/06/25 03:38:06;;;;;;;0.82;0.60;;;22.40;92.70;;;;;;4935637;29;20028;-75
2022/06/25 03:40:32;;;;;;;0.98;0.80;;;22.40;92.40;;;;;;4935635;29;20035;-75
2022/06/25 03:42:58;;;;;;;1.58;0.60;;;22.40;92.30;;;;;;4935542;29;20538;-75
2022/06/25 03:45:24;;;;;;;1.17;0.55;;;22.50;92.20;;;;;;4935368;29;20477;-76
2022/06/25 03:47:50;;;;;;;1.67;0.50;;;22.40;91.90;;;;;;4918364;29;20035;-75
2022/06/25 03:50:20;;;;;;;0.52;0.50;;;22.50;91.70;;;;;;4935743;29;20039;-76
2022/06/25 03:52:48;;;;;;;0.80;0.65;;;22.50;91.40;;;;;;4935600;29;20016;-75
2022/06/25 03:55:15;;;;;;;0.60;0.47;;;22.50;91.30;;;;;;4935335;29;20027;-75
2022/06/25 03:57:41;;;;;;;1.80;0.52;;;22.60;90.60;;;;;;4935246;29;20031;-75
2022/06/25 04:00:08;;;;;;;1.67;0.73;;;22.60;90.70;;;;;;4934069;29;20032;-76
2022/06/25 04:02:34;;;;;;;1.00;0.60;;;22.60;90.90;;;;;;4935612;29;20058;-75
2022/06/25 04:05:00;;;;;;;2.53;0.95;;;22.60;90.60;;;;;;4935267;29;20040;-75
2022/06/25 04:07:26;;;;;;;1.33;0.52;;;22.60;90.40;;;;;;4935338;29;20155;-75
2022/06/25 04:09:52;;;;;;;0.43;0.30;;;22.60;90.50;;;;;;4918398;29;20082;-75
2022/06/25 04:12:18;;;;;;;1.13;0.32;;;22.60;90.60;;;;;;4935357;29;20090;-74
2022/06/25 04:14:44;;;;;;;0.43;0.43;;;22.60;90.40;;;;;;4935129;29;20035;-75
2022/06/25 04:17:10;;;;;;;0.60;0.60;;;22.60;90.20;;;;;;4935175;29;20023;-75
2022/06/25 04:19:42;;;;;;;0.77;0.50;;;22.70;89.60;;;;;;4935124;29;20103;-75
2022/06/25 04:22:11;;;;;;;0.50;0.50;;;22.70;89.40;;;;;;4935987;29;20051;-75
2022/06/25 04:24:38;;;;;;;0.68;0.65;;;22.60;89.50;;;;;;4938412;29;20032;-75
2022/06/25 04:27:04;;;;;;;0.47;0.40;;;22.70;88.90;;;;;;4938666;29;20058;-75
2022/06/25 04:29:30;;;;;;;1.02;0.40;;;22.60;88.80;;;;;;4944163;29;20074;-75
2022/06/25 04:31:57;;;;;;;2.05;0.45;;;22.60;88.40;;;;;;4957748;29;20118;-75
2022/06/25 04:34:23;;;;;;;0.60;0.40;;;22.70;87.70;;;;;;4957412;29;20385;-75
2022/06/25 04:36:49;;;;;;;1.15;0.68;;;22.70;87.80;;;;;;4922451;29;20059;-76
2022/06/25 04:39:15;;;;;;;1.08;0.32;;;22.70;88.00;;;;;;4919442;29;20028;-76
2022/06/25 04:41:40;;;;;;;0.43;0.43;;;22.70;87.40;;;;;;4919311;29;20020;-75
2022/06/25 04:44:06;;;;;;;0.47;0.40;;;22.80;87.60;;;;;;4919275;29;20028;-75
2022/06/25 04:46:32;;;;;;;0.20;0.20;;;22.80;86.50;;;;;;4919380;29;20032;-76
2022/06/25 04:48:58;;;;;;;0.40;0.40;;;22.90;86.40;;;;;;4902366;29;20123;-75
2022/06/25 04:51:25;;;;;;;0.35;0.28;;;22.90;86.00;;;;;;4919157;29;20095;-75
2022/06/25 04:53:55;;;;;;;0.28;0.25;;;23.00;86.10;;;;;;4919300;29;20364;-75
2022/06/25 04:56:30;;;;;;;0.30;0.30;;;23.00;86.30;;;;;;4902197;29;20063;-75
2022/06/25 04:58:56;;;;;;;1.10;0.43;;;23.00;85.20;;;;;;4901856;29;20502;-75
2022/06/25 05:01:23;;;;;;;1.00;0.43;;;23.00;85.30;;;;;;4919110;29;20040;-75
2022/06/25 05:03:49;;;;;;;1.10;0.40;;;23.10;84.80;;;;;;4919051;29;20031;-76
2022/06/25 05:06:15;;;;;;;3.83;0.50;;;23.10;84.50;;;;;;4918927;29;20099;-76
2022/06/25 05:08:41;;;;;;;0.32;0.30;;;23.20;84.50;;;;;;4901955;29;20024;-76
2022/06/25 05:11:07;;;;;;;0.38;0.30;;;23.20;83.80;;;;;;4918913;29;20032;-76
2022/06/25 05:13:33;;;;;;;0.47;0.20;;;23.30;83.40;;;;;;4918829;29;20020;-76
2022/06/25 05:15:58;;;;;;;0.20;0.20;;;23.30;82.60;;;;;;4918638;29;20038;-76
2022/06/25 05:18:24;;;;;;;0.22;0.22;;;23.40;82.60;;;;;;4901560;29;20068;-75
2022/06/25 05:20:50;;;;;;;0.60;0.30;;;23.40;81.00;;;;;;4918601;29;20035;-76
2022/06/25 05:23:15;;;;;;;1.55;0.50;;;23.40;81.80;;;;;;4901889;29;20024;-76
2022/06/25 05:25:42;;;;;;;1.95;0.40;;;23.50;81.00;;;;;;4918313;29;20107;-76
2022/06/25 05:28:11;;;;;;;0.50;0.20;;;23.60;81.60;;;;;;4918603;29;20103;-75
2022/06/25 05:30:37;;;;;;;1.90;0.20;;;23.70;80.40;;;;;;4918468;29;20115;-76
2022/06/25 05:33:06;;;;;;;0.30;0.20;;;23.70;79.40;;;;;;4900943;29;20107;-76
2022/06/25 05:35:32;;;;;;;0.30;0.30;;;23.80;80.00;;;;;;4924408;29;20043;-76
2022/06/25 05:37:57;;;;;;;0.50;0.30;;;23.80;79.10;;;;;;4937400;29;20039;-75
2022/06/25 05:40:23;;;;;;;2.38;0.38;;;23.90;80.10;;;;;;4937646;29;20026;-75
2022/06/25 05:42:49;;;;;;;1.05;0.57;;;23.90;80.70;;;;;;4920384;29;20039;-75
2022/06/25 05:45:15;;;;;;;0.52;0.50;;;23.90;82.30;;;;;;4937185;29;20042;-75
2022/06/25 05:47:40;;;;;;;0.10;0.10;;;24.00;80.70;;;;;;4935944;29;20118;-75
2022/06/25 05:50:07;;;;;;;2.15;0.45;;;24.00;80.60;;;;;;4937135;29;20038;-75
2022/06/25 05:52:33;;;;;;;0.47;0.47;;;24.10;80.20;;;;;;4936928;29;20115;-75
2022/06/25 05:54:59;;;;;;;1.15;0.60;;;24.10;84.80;;;;;;4919945;29;20115;-75
2022/06/25 05:57:25;;;;;;;1.20;0.77;;;24.10;86.20;;;;;;4936994;29;20035;-75
2022/06/25 05:59:50;;;;;;;1.92;0.68;;;24.20;87.40;;;;;;4937183;29;20553;-75
2022/06/25 06:02:19;;;;;;;1.13;0.80;;;24.20;88.50;;;;;;4919026;29;20126;-75
2022/06/25 06:04:45;;;;;;;1.95;0.75;;;24.20;89.20;;;;;;4935775;29;20079;-75
2022/06/25 06:07:11;;;;;;;2.83;0.65;;;24.20;89.90;;;;;;4936622;29;20031;-75
2022/06/25 06:09:37;;;;;;;4.70;1.20;;;24.20;89.60;;;;;;4936672;29;20030;-75
2022/06/25 06:12:03;;;;;;;5.07;1.42;;;24.30;91.00;;;;;;4919630;29;20071;-76
2022/06/25 06:14:28;;;;;;;1.90;1.27;;;24.20;90.90;;;;;;4936587;29;20020;-75
2022/06/25 06:16:57;;;;;;;4.57;1.77;;;24.20;91.00;;;;;;4937012;29;20481;-75
2022/06/25 06:19:23;;;;;;;2.15;0.90;;;24.30;91.40;;;;;;4936834;29;20035;-75
2022/06/25 06:21:49;;;;;;;1.83;0.95;;;24.20;90.60;;;;;;4936759;29;20398;-76
2022/06/25 06:24:15;;;;;;;1.35;0.82;;;24.30;90.50;;;;;;4936715;29;20083;-75
2022/06/25 06:26:41;;;;;;;4.35;0.82;;;24.20;90.10;;;;;;4936425;29;20564;-76
2022/06/25 06:29:09;;;;;;;0.75;0.55;;;24.30;89.00;;;;;;4936917;29;20046;-76
2022/06/25 06:31:38;;;;;;;0.45;0.45;;;24.30;86.40;;;;;;4938059;29;20034;-75
2022/06/25 06:34:04;;;;;;;1.42;0.65;;;24.30;85.70;;;;;;4955529;29;20019;-76
2022/06/25 06:36:29;;;;;;;2.70;0.95;;;24.40;85.10;;;;;;4938380;29;20054;-76
2022/06/25 06:38:55;;;;;;;1.40;1.00;;;24.40;86.60;;;;;;4937550;29;20035;-75
2022/06/25 06:41:21;;;;;;;1.75;1.35;;;24.40;87.50;;;;;;4936218;29;20114;-75
2022/06/25 06:43:46;;;;;;;7.40;0.90;;;24.50;89.10;;;;;;4935823;29;20035;-76
2022/06/25 06:46:13;;;;;;;1.17;0.60;;;24.50;89.40;;;;;;4918969;29;20027;-76
2022/06/25 06:48:41;;;;;;;2.35;0.50;;;24.60;85.80;;;;;;4936257;29;20020;-75
2022/06/25 06:51:07;;;;;;;0.77;0.52;;;24.60;87.60;;;;;;4936103;29;20047;-76
2022/06/25 06:53:34;;;;;;;0.40;0.40;;;24.70;89.70;;;;;;4935926;29;20027;-75
2022/06/25 06:56:00;;;;;;;3.83;0.70;;;24.70;90.00;;;;;;4918796;29;20614;-76
2022/06/25 06:58:27;;;;;;;2.47;0.63;;;24.70;88.40;;;;;;4935727;29;20511;-76
2022/06/25 07:00:53;;;;;;;1.50;0.50;;;24.70;88.60;;;;;;4935890;29;20038;-75
2022/06/25 07:03:18;;;;;;;1.00;1.00;;;24.80;86.60;;;;;;4935837;29;20020;-75
2022/06/25 07:05:44;;;;;;;1.60;0.57;;;24.80;84.60;;;;;;4935912;29;20028;-76
2022/06/25 07:08:10;;;;;;;0.75;0.40;;;24.90;83.30;;;;;;4919042;29;20486;-75
2022/06/25 07:10:35;;;;;;;1.65;0.60;;;25.00;80.00;;;;;;4936056;29;20020;-76
2022/06/25 07:13:01;;;;;;;0.73;0.50;;;25.00;79.60;;;;;;4918650;29;20028;-75
2022/06/25 07:15:27;;;;;;;0.55;0.40;;;25.10;82.40;;;;;;4918726;29;20032;-76
2022/06/25 07:17:53;;;;;;;0.80;0.30;;;25.10;83.10;;;;;;4935488;29;20024;-75
2022/06/25 07:20:18;;;;;;;2.97;0.60;;;25.20;81.20;;;;;;4934919;29;20035;-75
2022/06/25 07:22:44;;;;;;;0.22;0.22;;;25.30;78.60;;;;;;4935286;29;20031;-75
2022/06/25 07:25:10;;;;;;;0.30;0.30;;;25.30;79.00;;;;;;4935631;29;20027;-75
2022/06/25 07:27:35;;;;;;;0.30;0.20;;;25.40;77.30;;;;;;4934120;29;20028;-76
2022/06/25 07:30:01;;;;;;;0.75;0.20;;;25.40;77.60;;;;;;4935761;29;20020;-76
2022/06/25 07:32:27;;;;;;;0.22;0.22;;;25.40;77.90;;;;;;4935451;29;20066;-75
2022/06/25 07:34:52;;;;;;;0.40;0.40;;;25.50;76.60;;;;;;4935088;29;20052;-75
2022/06/25 07:37:18;;;;;;;0.75;0.30;;;25.60;77.40;;;;;;4940493;29;20038;-76
2022/06/25 07:39:44;;;;;;;0.88;0.65;;;25.60;77.00;;;;;;4937113;29;20031;-75
2022/06/25 07:42:10;;;;;;;0.52;0.52;;;25.80;72.50;;;;;;4954577;29;20031;-76
2022/06/25 07:44:36;;;;;;;0.30;0.30;;;25.80;71.20;;;;;;4954122;29;20386;-76
2022/06/25 07:47:02;;;;;;;0.45;0.38;;;25.80;72.20;;;;;;4954387;29;20485;-75
2022/06/25 07:49:28;;;;;;;0.68;0.38;;;25.90;71.10;;;;;;4954561;29;20074;-75
2022/06/25 07:51:57;;;;;;;0.70;0.43;;;26.10;71.00;;;;;;4954607;29;20026;-76
2022/06/25 07:54:24;;;;;;;2.85;0.40;;;26.20;73.00;;;;;;4953182;29;20023;-75
2022/06/25 07:56:50;;;;;;;0.40;0.40;;;26.30;72.80;;;;;;4954722;28;20030;-75
2022/06/25 07:59:16;;;;;;;0.13;0.13;;;26.30;69.60;;;;;;4940167;29;20418;-75
2022/06/25 08:01:45;;;;;;;1.25;0.63;;;26.40;72.30;;;;;;4957350;29;20342;-76
2022/06/25 08:04:11;;;;;;;0.82;0.25;;;26.30;68.60;;;;;;4941233;29;20054;-76
2022/06/25 08:06:38;;;;;;;0.52;0.50;;;26.30;64.90;;;;;;4957751;29;20489;-75
2022/06/25 08:09:05;;;;;;;1.65;0.55;;;26.30;66.70;;;;;;4957492;29;20023;-76
2022/06/25 08:11:31;;;;;;;0.35;0.35;;;26.20;67.00;;;;;;4956903;29;20023;-75
2022/06/25 08:13:57;;;;;;;0.20;0.20;;;26.30;66.70;;;;;;4956824;29;20031;-75
2022/06/25 08:16:26;;;;;;;0.25;0.20;;;26.30;66.80;;;;;;4956781;29;20027;-75
2022/06/25 08:18:52;;;;;;;0.60;0.57;;;26.30;65.90;;;;;;4939542;29;20380;-75
2022/06/25 08:21:19;;;;;;;1.25;0.40;;;26.30;67.10;;;;;;4956704;29;20099;-75
2022/06/25 08:23:44;;;;;;;5.07;0.75;;;26.30;66.60;;;;;;4920920;29;20052;-75
2022/06/25 08:26:10;;;;;;;1.35;0.40;;;26.40;66.00;;;;;;4937479;29;20023;-75
2022/06/25 08:28:36;;;;;;;0.60;0.40;;;26.40;65.10;;;;;;4937488;29;20050;-76
2022/06/25 08:31:03;;;;;;;0.60;0.50;;;26.40;65.90;;;;;;4937576;29;20039;-76
2022/06/25 08:33:28;;;;;;;1.35;0.30;;;26.40;66.40;;;;;;4937253;29;20024;-74
2022/06/25 08:35:54;;;;;;;0.55;0.30;;;26.50;65.40;;;;;;4920071;29;20142;-75
2022/06/25 08:38:20;;;;;;;0.20;0.20;;;26.50;65.30;;;;;;4950706;29;20027;-75
2022/06/25 08:40:46;;;;;;;0.45;0.28;;;26.50;65.00;;;;;;4955638;29;20078;-76
2022/06/25 08:43:12;;;;;;;0.30;0.30;;;26.50;64.10;;;;;;4956259;29;20438;-76
2022/06/25 08:45:38;;;;;;;0.52;0.52;;;26.50;64.70;;;;;;4939137;29;20016;-75
2022/06/25 08:48:11;;;;;;;1.75;0.43;;;26.60;64.40;;;;;;4956198;29;20042;-76
2022/06/25 08:50:37;;;;;;;1.85;0.30;;;26.70;63.30;;;;;;4956226;29;20019;-76
2022/06/25 08:53:04;;;;;;;0.40;0.40;;;26.70;62.70;;;;;;4956141;29;20032;-75
2022/06/25 08:55:40;;;;;;;0.57;0.50;;;26.70;63.60;;;;;;4938899;29;20442;-75
2022/06/25 08:58:07;;;;;;;0.88;0.40;;;26.70;65.10;;;;;;4956098;29;20058;-75
2022/06/25 09:00:35;;;;;;;0.38;0.30;;;26.70;63.50;;;;;;4956080;29;20031;-75
2022/06/25 09:03:05;;;;;;;0.35;0.35;;;26.80;64.30;;;;;;4955956;29;20397;-75
2022/06/25 09:05:36;;;;;;;0.20;0.20;;;26.80;63.90;;;;;;4955975;29;20027;-75
2022/06/25 09:08:08;;;;;;;1.20;0.73;;;26.90;63.70;;;;;;4955385;28;20036;-75
2022/06/25 09:10:35;;;;;;;2.20;0.45;;;27.00;64.80;;;;;;4955576;29;20516;-76
2022/06/25 09:13:04;;;;;;;2.13;0.45;;;27.10;64.60;;;;;;4938458;29;20070;-75
2022/06/25 09:15:33;;;;;;;0.98;0.50;;;27.10;64.20;;;;;;4938450;29;20525;-75
2022/06/25 09:18:12;;;;;;;1.58;0.52;;;27.20;64.00;;;;;;4938332;29;20051;-75
2022/06/25 09:20:56;;;;;;;4.57;0.88;;;27.30;63.20;;;;;;4956017;29;20023;-75
2022/06/25 09:23:22;;;;;;;1.00;0.90;;;27.40;64.90;;;;;;4954179;29;20037;-76
2022/06/25 09:26:06;;;;;;;2.35;0.70;;;27.40;65.50;;;;;;4919634;29;20031;-75
2022/06/25 09:28:37;;;;;;;1.40;0.80;;;27.40;67.70;;;;;;4918507;29;20538;-76
2022/06/25 09:31:04;;;;;;;1.98;0.93;;;27.40;66.60;;;;;;4930393;29;20549;-76
2022/06/25 09:33:36;;;;;;;0.65;0.60;;;27.40;66.70;;;;;;4935615;29;20024;-75
2022/06/25 09:36:03;;;;;;;1.30;0.70;;;27.40;67.50;;;;;;4935829;29;20517;-77
2022/06/25 09:38:28;;;;;;;2.45;0.68;;;27.50;70.00;;;;;;4921272;29;20043;-75
2022/06/25 09:40:56;;;;;;;1.95;1.05;;;27.50;71.20;;;;;;4936022;29;20524;-75
2022/06/25 09:43:24;;;;;;;1.40;0.90;;;27.60;71.80;;;;;;4935601;29;20091;-76
2022/06/25 09:45:52;;;;;;;2.10;1.20;;;27.60;70.90;;;;;;4937211;29;20430;-75
2022/06/25 09:48:20;;;;;;;1.75;0.80;;;27.60;70.30;;;;;;4936972;29;20063;-76
2022/06/25 09:51:15;;;;;;;1.40;0.80;;;27.60;71.00;;;;;;4936864;29;20371;-76
2022/06/25 09:53:48;;;;;;;5.18;2.17;;;27.60;73.00;;;;;;4936516;29;20494;-75
2022/06/25 09:56:28;;;;;;;1.38;1.13;;;27.70;72.70;;;;;;4919222;29;20059;-75
2022/06/25 09:58:55;;;;;;;3.88;1.50;;;27.50;73.50;;;;;;4935451;29;20032;-75
2022/06/25 10:01:25;;;;;;;1.63;1.00;;;27.60;73.70;;;;;;4933698;29;20509;-75
2022/06/25 10:03:52;;;;;;;0.93;0.90;;;27.60;72.70;;;;;;4933591;29;20114;-75
2022/06/25 10:06:21;;;;;;;2.75;1.30;;;27.60;71.20;;;;;;4933721;29;20083;-76
2022/06/25 10:08:48;;;;;;;1.40;1.25;;;27.60;71.40;;;;;;4933760;29;20038;-75
2022/06/25 10:11:14;;;;;;;5.00;1.42;;;27.70;74.00;;;;;;4932908;29;20054;-76
2022/06/25 10:13:42;;;;;;;1.80;1.15;;;27.90;74.50;;;;;;4915690;29;20024;-75
2022/06/25 10:16:08;;;;;;;1.98;0.90;;;27.80;75.10;;;;;;4933614;29;20119;-76
2022/06/25 10:18:36;;;;;;;2.75;1.20;;;27.80;73.10;;;;;;4933413;29;20034;-75
2022/06/25 10:21:03;;;;;;;2.78;1.27;;;27.90;73.30;;;;;;4933114;29;20268;-76
2022/06/25 10:23:29;;;;;;;1.40;1.30;;;27.90;72.90;;;;;;4933270;29;20028;-75
2022/06/25 10:25:56;;;;;;;2.58;0.90;;;27.80;72.50;;;;;;4934331;29;20020;-76
2022/06/25 10:28:28;;;;;;;3.03;1.08;;;27.80;71.90;;;;;;4935121;29;20024;-76
2022/06/25 10:30:56;;;;;;;1.35;1.23;;;27.90;72.70;;;;;;4934343;29;20034;-76
2022/06/25 10:33:27;;;;;;;1.27;0.90;;;28.00;69.80;;;;;;4934896;29;20016;-75
2022/06/25 10:35:56;;;;;;;0.65;0.60;;;28.00;69.60;;;;;;4935331;29;20063;-75
2022/06/25 10:38:24;;;;;;;2.42;0.98;;;28.20;67.40;;;;;;4953847;29;20035;-75
2022/06/25 10:40:57;;;;;;;1.65;1.27;;;28.20;65.70;;;;;;4954241;29;20027;-76
2022/06/25 10:43:39;;;;;;;3.65;0.60;;;28.30;67.60;;;;;;4936762;29;20027;-76
2022/06/25 10:46:30;;;;;;;2.13;0.50;;;28.40;61.70;;;;;;4952879;29;20027;-76
2022/06/25 10:49:08;;;;;;;1.25;0.65;;;28.50;60.20;;;;;;4953999;29;20102;-75
2022/06/25 10:51:34;;;;;;;2.47;0.68;;;28.50;60.50;;;;;;4953867;29;20083;-76
2022/06/25 10:54:01;;;;;;;2.50;0.80;;;28.70;61.10;;;;;;4936701;29;20276;-76
2022/06/25 10:56:37;;;;;;;3.80;0.65;;;28.80;60.50;;;;;;4954018;29;20031;-76
2022/06/25 10:59:03;;;;;;;0.40;0.40;;;28.90;63.30;;;;;;4953766;29;20457;-76
2022/06/25 11:01:30;;;;;;;0.95;0.55;;;29.20;63.70;;;;;;4952591;29;20061;-76
2022/06/25 11:04:01;;;;;;;1.15;0.68;;;29.30;59.30;;;;;;4952565;29;20143;-76
2022/06/25 11:06:38;;;;;;;2.63;0.73;;;29.30;58.20;;;;;;4953782;29;20031;-76
2022/06/25 11:09:15;;;;;;;0.35;0.30;;;29.40;58.90;;;;;;4936430;29;20450;-76
2022/06/25 11:11:47;;;;;;;1.85;0.32;;;29.50;58.40;;;;;;4932707;29;20501;-76
2022/06/25 11:14:14;;;;;;;;;;;29.60;57.40;;;;;;4935844;29;20031;-76
2022/06/25 11:16:40;;;;;;;0.50;0.50;;;29.60;53.90;;;;;;4933834;29;19907;-76
2022/06/25 11:19:06;;;;;;;1.48;0.47;;;29.60;56.30;;;;;;4935104;29;20497;-76
2022/06/25 11:21:34;;;;;;;1.33;0.50;;;29.70;57.10;;;;;;4934802;29;20483;-76
2022/06/25 11:24:06;;;;;;;2.05;0.75;;;29.70;54.60;;;;;;4916883;29;20494;-75
2022/06/25 11:29:27;;;;;;;2.45;0.52;;;30.00;54.50;;;;;;4935126;29;19962;-76
2022/06/25 11:31:55;;;;;;;1.17;0.52;;;30.10;53.70;;;;;;4916837;29;20123;-76
2022/06/25 11:34:24;;;;;;;0.68;0.40;;;30.20;53.90;;;;;;4934700;29;20016;-76
2022/06/25 11:36:58;;;;;;;0.68;0.30;;;30.20;53.10;;;;;;4917841;29;20090;-76
2022/06/25 11:39:24;;;;;;;0.30;0.30;;;30.30;50.50;;;;;;4918072;29;20162;-76
2022/06/25 11:41:51;;;;;;;2.10;0.47;;;30.30;53.40;;;;;;4935522;29;20039;-75
2022/06/25 11:44:18;;;;;;;1.02;0.70;;;30.40;53.20;;;;;;4935502;29;20098;-75
2022/06/25 11:46:45;;;;;;;1.42;0.60;;;30.50;53.40;;;;;;4931037;29;20501;-75
2022/06/25 11:49:12;;;;;;;1.08;0.77;;;30.60;51.50;;;;;;4934737;29;20062;-75
2022/06/25 11:51:51;;;;;;;1.52;0.80;;;30.60;52.40;;;;;;4918265;29;20389;-75
2022/06/25 11:54:21;;;;;;;2.50;0.90;;;30.80;51.10;;;;;;4935299;29;20034;-75
2022/06/25 11:56:54;;;;;;;1.10;0.80;;;30.70;51.20;;;;;;4918234;29;20075;-75
2022/06/25 11:59:39;;;;;;;4.15;1.33;;;30.80;53.10;;;;;;4935410;29;20027;-75
2022/06/25 12:02:06;;;;;;;2.30;0.70;;;30.80;53.60;;;;;;4935278;29;20079;-76
2022/06/25 12:04:43;;;;;;;1.58;0.77;;;31.00;51.40;;;;;;4934681;29;20063;-75
2022/06/25 12:07:17;;;;;;;1.60;0.80;;;31.00;50.90;;;;;;4899034;29;20036;-75
2022/06/25 12:09:42;;;;;;;0.98;0.80;;;31.00;53.50;;;;;;4916014;29;20027;-75
2022/06/25 12:12:08;;;;;;;1.85;0.80;;;31.30;54.10;;;;;;4929800;29;20394;-75
2022/06/25 12:14:34;;;;;;;2.65;1.13;;;31.20;53.80;;;;;;4934105;29;20059;-75
2022/06/25 12:17:00;;;;;;;1.08;0.98;;;31.30;54.80;;;;;;4934103;29;20486;-75
2022/06/25 12:19:49;;;;;;;2.20;1.13;;;31.50;53.60;;;;;;4934182;29;20030;-75
2022/06/25 12:22:42;;;;;;;1.92;0.68;;;31.60;53.00;;;;;;4933902;29;20035;-75
2022/06/25 12:25:10;;;;;;;3.22;0.50;;;31.60;49.50;;;;;;4933218;29;20497;-76
2022/06/25 12:27:52;;;;;;;3.20;0.85;;;31.70;48.40;;;;;;4934509;29;20114;-75
2022/06/25 12:30:29;;;;;;;5.97;0.88;;;31.70;49.30;;;;;;4934996;29;20028;-75
2022/06/25 12:32:57;;;;;;;1.17;0.65;;;31.80;50.20;;;;;;4934964;29;20024;-75
2022/06/25 12:35:26;;;;;;;1.42;0.80;;;31.90;48.30;;;;;;4926041;29;20044;-75
2022/06/25 12:38:07;;;;;;;2.92;1.58;;;31.90;49.60;;;;;;4934751;29;20028;-75
2022/06/25 12:40:58;;;;;;;1.70;0.90;;;32.00;51.40;;;;;;4934861;29;20035;-75
2022/06/25 12:43:25;;;;;;;5.80;0.80;;;32.20;51.10;;;;;;4933481;29;20046;-75
2022/06/25 12:45:53;;;;;;;1.27;1.00;;;32.30;49.50;;;;;;4937917;29;20036;-75
2022/06/25 12:48:32;;;;;;;2.70;1.13;;;32.20;49.80;;;;;;4938232;29;20034;-75
2022/06/25 12:51:19;;;;;;;1.33;1.08;;;32.30;50.80;;;;;;4920900;29;20106;-74
2022/06/25 12:53:45;;;;;;;1.20;0.90;;;32.60;49.70;;;;;;4920922;29;20028;-74
2022/06/25 12:56:12;;;;;;;6.85;1.00;;;32.60;51.10;;;;;;4936402;29;20028;-75
2022/06/25 12:58:40;;;;;;;2.03;1.00;;;32.70;49.60;;;;;;4920619;29;20030;-75
2022/06/25 13:01:27;;;;;;;1.92;0.90;;;32.80;50.90;;;;;;4937707;29;20046;-75
2022/06/25 13:03:57;;;;;;;3.60;0.95;;;32.90;49.70;;;;;;4937617;29;20046;-75